Time;durP1;ratioP1;P1;durP2;ratioP2;P2;SDS_P1;SDS_P2;PMS_P1;PMS_P2;Temp;Humidity;BMP_temperature;BMP_pressure;BME280_temperature;BME280_humidity;BME280_pressure;Samples;Min_cycle;Max_cycle;Signal;HPM_P1;HPM_P2
2022/01/28 00:00:47;;;;;;;23.40;4.30;;;;;;;3.34;100.00;101104.25;7405384;19;20407;-49
2022/01/28 00:03:17;;;;;;;16.90;3.43;;;;;;;3.35;100.00;101100.94;7403314;19;20430;-50
2022/01/28 00:05:46;;;;;;;33.17;4.37;;;;;;;3.33;100.00;101107.59;7403454;19;20416;-52
2022/01/28 00:08:16;;;;;;;17.33;2.80;;;;;;;3.31;100.00;101136.28;7402907;19;20419;-47
2022/01/28 00:10:50;;;;;;;24.17;3.90;;;;;;;3.31;100.00;101124.44;7404946;19;20670;-51
2022/01/28 00:13:27;;;;;;;22.47;4.80;;;;;;;3.27;100.00;101126.66;7402346;19;20509;-50
2022/01/28 00:38:01;;;;;;;22.80;3.03;;;;;;;3.48;100.00;101175.84;7402925;19;20387;-50
2022/01/28 00:40:32;;;;;;;22.63;5.47;;;;;;;3.47;100.00;101179.19;7404415;19;20389;-47
2022/01/28 00:43:06;;;;;;;17.13;2.57;;;;;;;3.46;100.00;101175.75;7371795;19;20900;-48
2022/01/28 00:45:35;;;;;;;27.30;3.60;;;;;;;3.49;100.00;101191.28;7401309;19;20426;-51
2022/01/28 00:48:05;;;;;;;18.70;3.60;;;;;;;3.50;100.00;101189.66;7402246;19;21436;-49
2022/01/28 00:50:35;;;;;;;29.63;3.03;;;;;;;3.47;100.00;101187.75;7403893;19;20396;-50
2022/01/28 00:53:05;;;;;;;23.13;3.83;;;;;;;3.48;100.00;101198.81;7401677;19;20418;-51
2022/01/28 00:55:34;;;;;;;15.87;2.90;;;;;;;3.43;100.00;101206.13;7402637;19;20420;-53
2022/01/28 00:58:06;;;;;;;14.73;2.37;;;;;;;3.46;100.00;101220.78;7379353;19;20414;-49
2022/01/28 01:00:36;;;;;;;27.40;4.30;;;;;;;3.47;100.00;101212.34;7402675;19;20864;-50
2022/01/28 01:03:05;;;;;;;13.87;2.63;;;;;;;3.45;100.00;101224.13;7398861;19;20469;-50
2022/01/28 01:05:35;;;;;;;23.47;4.27;;;;;;;3.41;100.00;101232.28;7399448;19;20427;-51
2022/01/28 01:08:07;;;;;;;30.43;3.73;;;;;;;3.43;100.00;101220.56;7399013;19;20412;-48
2022/01/28 01:10:37;;;;;;;15.03;3.13;;;;;;;3.45;100.00;101229.22;7400548;19;20391;-53
2022/01/28 01:13:09;;;;;;;19.17;3.53;;;;;;;3.50;100.00;101235.56;7388107;19;20416;-52
2022/01/28 01:15:43;;;;;;;26.00;4.03;;;;;;;3.50;100.00;101240.69;7399182;19;20463;-50
2022/01/28 01:18:19;;;;;;;25.57;2.90;;;;;;;3.50;100.00;101256.00;7397676;19;20395;-49
2022/01/28 01:21:01;;;;;;;23.83;3.57;;;;;;;3.52;100.00;101244.22;7399968;19;20378;-54
2022/01/28 01:23:34;;;;;;;20.07;3.67;;;;;;;3.51;100.00;101245.00;7398815;19;20420;-52
2022/01/28 01:26:10;;;;;;;25.90;3.70;;;;;;;3.53;100.00;101257.88;7398657;19;20881;-52
2022/01/28 01:28:43;;;;;;;16.77;3.57;;;;;;;3.46;100.00;101256.50;7399562;19;20443;-50
2022/01/28 01:31:16;;;;;;;24.57;3.80;;;;;;;3.45;100.00;101260.75;7403439;19;20459;-52
2022/01/28 01:33:50;;;;;;;25.50;3.93;;;;;;;3.43;100.00;101279.25;7398125;19;20420;-52
2022/01/28 01:36:20;;;;;;;22.03;3.03;;;;;;;3.40;100.00;101281.53;7400414;19;20429;-50
2022/01/28 01:38:49;;;;;;;22.70;3.77;;;;;;;3.45;100.00;101285.34;7397529;19;21177;-48
2022/01/28 01:41:28;;;;;;;29.67;4.23;;;;;;;3.37;100.00;101267.78;7399522;19;20388;-50
2022/01/28 01:44:05;;;;;;;22.20;3.20;;;;;;;3.34;100.00;101279.41;7376682;19;20399;-50
2022/01/28 01:46:47;;;;;;;18.57;3.67;;;;;;;3.34;100.00;101298.13;7398213;19;20429;-49
2022/01/28 01:52:06;;;;;;;24.53;3.60;;;;;;;3.27;100.00;101290.75;7400724;19;20455;-46
2022/01/28 01:54:41;;;;;;;23.00;2.90;;;;;;;3.30;100.00;101311.44;7398301;19;20407;-48
2022/01/28 01:57:13;;;;;;;25.13;3.90;;;;;;;3.37;100.00;101318.78;7398535;19;20479;-49
2022/01/28 01:59:47;;;;;;;27.70;3.70;;;;;;;3.43;100.00;101323.47;7398088;19;20407;-52
2022/01/28 02:02:17;;;;;;;22.13;3.40;;;;;;;3.44;100.00;101329.50;7401076;19;20394;-50
2022/01/28 02:04:46;;;;;;;30.67;4.10;;;;;;;3.43;100.00;101327.72;7397522;19;20419;-52
2022/01/28 02:07:17;;;;;;;15.80;2.70;;;;;;;3.46;100.00;101336.50;7398387;19;20446;-52
2022/01/28 02:09:47;;;;;;;22.07;2.70;;;;;;;3.47;100.00;101334.81;7397752;19;20427;-47
2022/01/28 02:12:16;;;;;;;28.53;4.23;;;;;;;3.49;100.00;101364.78;7398907;19;20375;-48
2022/01/28 02:14:48;;;;;;;21.83;4.47;;;;;;;3.55;100.00;101361.88;7396574;19;20443;-49
2022/01/28 02:17:18;;;;;;;18.50;3.70;;;;;;;3.55;100.00;101368.63;7398470;19;20484;-47
2022/01/28 02:19:47;;;;;;;12.30;2.83;;;;;;;3.56;100.00;101360.19;7397866;19;20422;-48
2022/01/28 02:22:21;;;;;;;15.80;3.07;;;;;;;3.51;100.00;101382.78;7404668;19;20901;-45
2022/01/28 02:24:50;;;;;;;12.23;2.50;;;;;;;3.48;100.00;101367.22;7397390;19;20502;-49
2022/01/28 02:27:20;;;;;;;14.57;3.23;;;;;;;3.41;100.00;101364.94;7401471;19;20427;-44
2022/01/28 02:29:50;;;;;;;12.17;2.83;;;;;;;3.35;100.00;101366.22;7398190;19;20422;-48
2022/01/28 02:32:19;;;;;;;19.47;2.93;;;;;;;3.28;100.00;101360.53;7400233;19;20459;-46
2022/01/28 02:34:49;;;;;;;16.93;1.93;;;;;;;3.24;100.00;101375.56;7397010;19;20483;-48
2022/01/28 02:37:22;;;;;;;18.33;3.07;;;;;;;3.19;100.00;101373.44;7397980;19;20479;-47
2022/01/28 02:39:52;;;;;;;14.47;3.10;;;;;;;3.17;100.00;101385.16;7398229;19;20423;-50
2022/01/28 02:42:33;;;;;;;15.13;2.67;;;;;;;3.19;100.00;101375.97;7397873;19;20418;-47
2022/01/28 02:45:08;;;;;;;14.87;3.00;;;;;;;3.20;100.00;101385.41;7398619;19;20443;-48
2022/01/28 02:47:38;;;;;;;23.43;2.80;;;;;;;3.15;100.00;101396.88;7397004;19;20392;-51
2022/01/28 02:50:09;;;;;;;16.27;3.43;;;;;;;3.16;100.00;101401.22;7400356;19;20661;-49
2022/01/28 02:52:50;;;;;;;16.30;2.70;;;;;;;3.19;100.00;101410.00;7398292;19;20451;-48
2022/01/28 02:55:20;;;;;;;16.30;3.67;;;;;;;3.22;100.00;101406.81;7398595;19;20406;-53
2022/01/28 02:58:03;;;;;;;16.07;2.97;;;;;;;3.23;100.00;101417.16;7401480;19;20413;-53
2022/01/28 03:00:33;;;;;;;13.90;2.77;;;;;;;3.28;100.00;101403.91;7399802;19;20858;-50
2022/01/28 03:03:02;;;;;;;24.73;3.27;;;;;;;3.26;100.00;101406.31;7398259;19;20728;-46
2022/01/28 03:05:34;;;;;;;17.13;2.60;;;;;;;3.29;100.00;101413.31;7398629;19;20418;-48
2022/01/28 03:08:07;;;;;;;17.97;3.00;;;;;;;3.34;100.00;101427.34;7396572;19;20411;-45
2022/01/28 03:11:03;;;;;;;22.63;4.07;;;;;;;3.35;100.00;101427.47;7399723;19;20711;-51
2022/01/28 03:13:57;;;;;;;25.47;3.07;;;;;;;3.43;100.00;101415.34;7396977;19;20419;-47
2022/01/28 03:16:29;;;;;;;11.87;2.23;;;;;;;3.47;100.00;101442.00;7397483;19;20426;-46
2022/01/28 03:19:02;;;;;;;19.60;3.47;;;;;;;3.48;100.00;101443.75;7396955;19;20396;-47
2022/01/28 03:21:44;;;;;;;19.80;3.57;;;;;;;3.48;100.00;101441.22;7398313;19;20393;-46
2022/01/28 03:24:16;;;;;;;22.60;3.53;;;;;;;3.45;100.00;101446.09;7397068;19;20412;-47
2022/01/28 03:26:47;;;;;;;23.30;4.10;;;;;;;3.31;100.00;101458.59;7397193;19;20416;-47
2022/01/28 03:29:16;;;;;;;21.93;3.80;;;;;;;3.20;100.00;101462.81;7395805;19;20419;-45
2022/01/28 03:31:46;;;;;;;14.70;3.17;;;;;;;3.19;100.00;101448.25;7398805;19;20399;-45
2022/01/28 03:34:16;;;;;;;24.23;3.53;;;;;;;3.23;100.00;101467.28;7370504;19;20445;-46
2022/01/28 03:36:45;;;;;;;21.00;4.63;;;;;;;3.27;100.00;101468.44;7396369;19;20424;-45
2022/01/28 03:39:17;;;;;;;19.93;3.53;;;;;;;3.19;100.00;101476.31;7397742;19;20692;-47
2022/01/28 03:41:47;;;;;;;26.97;4.50;;;;;;;3.20;100.00;101482.31;7398684;19;20388;-46
2022/01/28 03:44:16;;;;;;;29.77;4.17;;;;;;;3.16;100.00;101486.28;7361050;19;20435;-48
2022/01/28 03:46:46;;;;;;;21.13;2.17;;;;;;;3.19;100.00;101495.84;7395837;19;20419;-45
2022/01/28 03:49:16;;;;;;;28.23;3.77;;;;;;;3.24;100.00;101510.75;7393180;19;20424;-47
2022/01/28 03:51:45;;;;;;;26.40;3.73;;;;;;;3.25;100.00;101509.13;7398298;19;20402;-45
2022/01/28 03:54:17;;;;;;;19.30;3.30;;;;;;;3.21;100.00;101520.72;7396385;19;20430;-45
2022/01/28 03:56:47;;;;;;;20.80;3.50;;;;;;;3.20;100.00;101513.84;7396480;19;20466;-46
2022/01/28 03:59:16;;;;;;;30.67;3.67;;;;;;;3.15;100.00;101514.19;7361033;19;20430;-49
2022/01/28 04:01:48;;;;;;;20.77;3.33;;;;;;;3.12;100.00;101524.16;7397748;19;20395;-46
2022/01/28 04:12:38;;;;;;;13.57;3.10;;;;;;;3.08;100.00;101553.59;7401507;19;20392;-47
2022/01/28 04:15:24;;;;;;;28.17;4.00;;;;;;;3.08;100.00;101562.13;7399377;19;20457;-50
2022/01/28 04:17:56;;;;;;;25.37;4.20;;;;;;;3.09;100.00;101569.00;7399943;19;20463;-48
2022/01/28 04:20:25;;;;;;;29.73;3.53;;;;;;;3.12;100.00;101576.03;7400552;19;20391;-45
2022/01/28 04:22:55;;;;;;;21.73;3.27;;;;;;;3.16;100.00;101570.44;7372400;19;20459;-47
2022/01/28 04:25:27;;;;;;;23.13;4.60;;;;;;;3.12;100.00;101583.69;7395511;19;20379;-49
2022/01/28 04:27:56;;;;;;;18.57;4.47;;;;;;;3.09;100.00;101589.41;7395905;19;20640;-47
2022/01/28 04:30:26;;;;;;;24.37;3.70;;;;;;;3.18;100.00;101603.75;7401128;19;20403;-48
2022/01/28 04:32:55;;;;;;;25.30;3.27;;;;;;;3.15;100.00;101611.09;7395737;19;20466;-48
2022/01/28 04:35:25;;;;;;;19.33;3.60;;;;;;;3.18;100.00;101616.50;7406144;19;20382;-47
2022/01/28 04:38:05;;;;;;;13.90;3.23;;;;;;;3.22;100.00;101626.16;7379723;19;20418;-51
2022/01/28 04:40:46;;;;;;;36.17;4.47;;;;;;;3.24;100.00;101634.88;7406474;19;20399;-44
2022/01/28 04:43:22;;;;;;;18.10;3.43;;;;;;;3.23;100.00;101636.50;7402175;19;20449;-47
2022/01/28 04:45:59;;;;;;;14.40;3.40;;;;;;;3.21;100.00;101634.59;7406068;19;20426;-48
2022/01/28 04:48:35;;;;;;;20.00;3.20;;;;;;;3.24;100.00;101645.94;7405099;19;20467;-51
2022/01/28 04:51:16;;;;;;;16.43;3.20;;;;;;;3.31;100.00;101660.13;7407842;19;20468;-44
2022/01/28 04:56:50;;;;;;;25.93;3.47;;;;;;;3.39;100.00;101660.81;7404922;19;20419;-52
2022/01/28 04:59:33;;;;;;;19.83;4.17;;;;;;;3.43;100.00;101672.16;7405344;19;20452;-47
2022/01/28 05:05:06;;;;;;;23.20;3.50;;;;;;;3.42;100.00;101683.09;7400582;19;20419;-52
2022/01/28 05:07:53;;;;;;;30.30;4.17;;;;;;;3.42;100.00;101683.09;7406389;19;20455;-45
2022/01/28 05:16:23;;;;;;;14.13;3.00;;;;;;;3.46;100.00;101698.81;7403754;19;20435;-47
2022/01/28 05:24:46;;;;;;;29.30;4.50;;;;;;;3.45;100.00;101714.00;7404629;19;20433;-48
2022/01/28 05:27:17;;;;;;;24.63;3.80;;;;;;;3.40;100.00;101716.16;7404237;19;20424;-47
2022/01/28 05:29:49;;;;;;;18.57;4.50;;;;;;;3.31;100.00;101726.47;7385894;19;20431;-50
2022/01/28 05:32:19;;;;;;;30.20;3.40;;;;;;;3.33;100.00;101734.25;7406681;19;20454;-45
2022/01/28 05:34:49;;;;;;;22.93;4.60;;;;;;;3.28;100.00;101730.41;7379575;19;20468;-47
2022/01/28 05:37:18;;;;;;;20.60;4.50;;;;;;;3.22;100.00;101746.06;7403621;19;20500;-45
2022/01/28 05:39:47;;;;;;;25.63;3.40;;;;;;;3.16;100.00;101764.28;7401977;19;20734;-48
2022/01/28 05:42:17;;;;;;;39.10;7.40;;;;;;;3.18;100.00;101744.00;7405696;19;20385;-50
2022/01/28 05:44:46;;;;;;;23.63;3.80;;;;;;;3.20;100.00;101766.34;7402356;19;20439;-48
2022/01/28 05:47:19;;;;;;;17.50;3.20;;;;;;;3.15;100.00;101769.22;7403785;19;20416;-46
2022/01/28 05:49:50;;;;;;;20.80;3.40;;;;;;;3.22;100.00;101766.47;7397054;19;20466;-47
2022/01/28 05:52:19;;;;;;;23.57;3.53;;;;;;;3.19;100.00;101776.41;7405509;19;20396;-46
2022/01/28 05:54:49;;;;;;;30.53;4.87;;;;;;;3.19;100.00;101782.38;7402449;19;20439;-48
2022/01/28 05:57:18;;;;;;;23.37;3.80;;;;;;;3.22;100.00;101800.53;7403050;19;20424;-47
2022/01/28 05:59:48;;;;;;;18.47;2.57;;;;;;;3.20;100.00;101801.16;7403115;19;20972;-45
2022/01/28 06:02:20;;;;;;;13.90;3.40;;;;;;;3.30;100.00;101798.66;7405639;19;20462;-47
2022/01/28 06:04:50;;;;;;;22.40;2.97;;;;;;;3.27;100.00;101808.56;7374576;19;20415;-45
2022/01/28 06:07:21;;;;;;;20.00;3.33;;;;;;;3.30;100.00;101811.41;7398854;19;20945;-50
2022/01/28 06:09:50;;;;;;;20.50;2.80;;;;;;;3.31;100.00;101815.75;7397425;19;20442;-52
2022/01/28 06:12:20;;;;;;;24.07;3.27;;;;;;;3.32;100.00;101814.06;7400975;19;20382;-46
2022/01/28 06:14:49;;;;;;;29.63;4.13;;;;;;;3.30;100.00;101826.72;7375995;19;20383;-51
2022/01/28 06:17:21;;;;;;;31.03;3.07;;;;;;;3.31;100.00;101823.41;7398720;19;20490;-49
2022/01/28 06:19:51;;;;;;;20.03;3.73;;;;;;;3.34;100.00;101844.06;7395889;19;20427;-45
2022/01/28 06:22:20;;;;;;;25.50;4.47;;;;;;;3.32;100.00;101835.41;7400820;19;20370;-45
2022/01/28 06:24:50;;;;;;;21.63;4.23;;;;;;;3.36;100.00;101867.19;7396386;19;20425;-46
2022/01/28 06:27:19;;;;;;;25.70;3.50;;;;;;;3.34;100.00;101869.59;7402247;19;21100;-45
2022/01/28 06:29:49;;;;;;;9.30;2.20;;;;;;;3.33;100.00;101878.00;7366528;19;20491;-46
2022/01/28 06:32:18;;;;;;;22.17;3.63;;;;;;;3.36;100.00;101877.38;7401104;19;20848;-48
2022/01/28 06:34:50;;;;;;;18.67;3.70;;;;;;;3.36;100.00;101877.38;7374369;19;20403;-46
2022/01/28 06:37:20;;;;;;;23.13;3.07;;;;;;;3.35;100.00;101875.59;7397991;19;20422;-46
2022/01/28 06:39:49;;;;;;;18.13;2.40;;;;;;;3.28;100.00;101876.69;7398476;19;20503;-46
2022/01/28 06:42:19;;;;;;;24.13;4.03;;;;;;;3.28;100.00;101889.44;7400268;19;20398;-46
2022/01/28 06:44:48;;;;;;;25.00;4.50;;;;;;;3.29;100.00;101887.81;7394227;19;20423;-45
2022/01/28 06:47:18;;;;;;;19.53;3.20;;;;;;;3.29;100.00;101896.38;7398010;19;20399;-47
2022/01/28 06:49:50;;;;;;;21.57;3.57;;;;;;;3.27;100.00;101892.75;7396745;19;20435;-46
2022/01/28 06:52:20;;;;;;;16.70;3.27;;;;;;;3.27;100.00;101897.88;7399912;19;20392;-45
2022/01/28 06:54:49;;;;;;;20.70;2.87;;;;;;;3.26;100.00;101905.38;7400434;19;20454;-45
2022/01/28 06:57:19;;;;;;;26.17;4.00;;;;;;;3.25;100.00;101896.84;7396231;19;20748;-48
2022/01/28 06:59:48;;;;;;;14.70;3.27;;;;;;;3.25;100.00;101914.69;7397978;19;20874;-48
2022/01/28 07:02:18;;;;;;;17.70;2.70;;;;;;;3.19;100.00;101929.44;7399806;19;20403;-46
2022/01/28 07:04:50;;;;;;;18.07;3.07;;;;;;;3.19;100.00;101935.44;7397004;19;20419;-47
2022/01/28 07:07:22;;;;;;;23.97;3.60;;;;;;;3.16;100.00;101937.72;7397340;19;20419;-46
2022/01/28 07:09:52;;;;;;;24.80;3.93;;;;;;;3.14;100.00;101933.22;7395046;19;20708;-46
2022/01/28 07:12:21;;;;;;;25.07;3.97;;;;;;;3.14;100.00;101939.25;7399113;19;20677;-49
2022/01/28 07:14:53;;;;;;;19.23;4.50;;;;;;;3.07;100.00;101931.75;7390319;19;21196;-44
2022/01/28 07:17:22;;;;;;;23.93;3.83;;;;;;;3.07;100.00;101941.97;7397142;19;20702;-49
2022/01/28 07:19:54;;;;;;;35.27;4.63;;;;;;;3.07;100.00;101950.53;7397129;19;20419;-47
2022/01/28 07:22:24;;;;;;;18.60;3.83;;;;;;;3.05;100.00;101956.25;7398989;19;20401;-48
2022/01/28 07:24:54;;;;;;;25.03;3.67;;;;;;;3.03;100.00;101967.97;7393033;19;20919;-47
2022/01/28 07:27:23;;;;;;;17.40;3.00;;;;;;;3.01;100.00;101962.72;7396852;19;21196;-54
2022/01/28 07:29:53;;;;;;;21.13;3.77;;;;;;;3.01;100.00;101974.56;7390506;19;20510;-50
2022/01/28 07:32:23;;;;;;;22.43;3.40;;;;;;;2.96;100.00;101972.50;7402907;19;20399;-44
2022/01/28 07:34:55;;;;;;;25.77;3.90;;;;;;;3.01;100.00;101975.47;7390292;19;20407;-46
2022/01/28 07:37:24;;;;;;;21.17;3.60;;;;;;;2.97;100.00;101978.47;7396546;19;20409;-47
2022/01/28 07:39:55;;;;;;;18.00;4.00;;;;;;;2.98;100.00;101982.84;7396686;19;20425;-46
2022/01/28 07:42:25;;;;;;;24.87;5.50;;;;;;;2.94;100.00;101996.97;7398256;19;20403;-45
2022/01/28 07:44:55;;;;;;;17.73;4.07;;;;;;;2.91;100.00;101993.22;7395902;19;20394;-47
2022/01/28 07:47:24;;;;;;;20.50;3.20;;;;;;;2.93;100.00;101996.81;7395961;19;20414;-49
2022/01/28 07:49:57;;;;;;;23.50;4.97;;;;;;;2.93;100.00;101997.69;7395045;19;20432;-45
2022/01/28 07:52:26;;;;;;;21.63;4.03;;;;;;;2.95;100.00;102001.31;7400860;19;20864;-44
2022/01/28 07:54:56;;;;;;;20.00;4.50;;;;;;;2.95;100.00;102010.59;7395262;19;20423;-44
2022/01/28 07:57:26;;;;;;;22.80;4.40;;;;;;;2.94;100.00;102008.81;7396101;19;20427;-47
2022/01/28 07:59:55;;;;;;;22.67;3.73;;;;;;;2.84;100.00;102018.13;7395913;19;20419;-48
2022/01/28 08:02:27;;;;;;;23.53;4.70;;;;;;;2.87;100.00;102016.66;7398519;19;20388;-46
2022/01/28 08:04:59;;;;;;;21.20;3.80;;;;;;;2.97;100.00;102026.91;7365577;19;20694;-46
2022/01/28 08:07:29;;;;;;;30.63;4.10;;;;;;;2.91;100.00;102032.38;7395555;19;20417;-49
2022/01/28 08:09:58;;;;;;;25.00;4.07;;;;;;;2.98;100.00;102041.50;7394725;19;20442;-46
2022/01/28 08:12:28;;;;;;;27.27;4.67;;;;;;;2.98;100.00;102054.25;7405220;19;20875;-46
2022/01/28 08:14:57;;;;;;;17.37;3.03;;;;;;;2.93;100.00;102064.00;7401573;19;20422;-46
2022/01/28 08:17:27;;;;;;;23.93;4.83;;;;;;;2.99;100.00;102061.13;7401789;19;20431;-45
2022/01/28 08:19:59;;;;;;;27.87;3.33;;;;;;;3.02;100.00;102069.06;7403060;19;20425;-49
2022/01/28 08:22:30;;;;;;;25.47;4.83;;;;;;;2.98;100.00;102077.19;7404986;19;20394;-44
2022/01/28 08:24:59;;;;;;;24.80;4.50;;;;;;;2.99;100.00;102083.19;7404637;19;20418;-50
2022/01/28 08:27:29;;;;;;;27.00;5.63;;;;;;;2.95;100.00;102082.00;7401697;19;20431;-46
2022/01/28 08:29:59;;;;;;;22.03;4.00;;;;;;;2.90;100.00;102089.22;7403692;19;20701;-50
2022/01/28 08:32:29;;;;;;;31.93;4.93;;;;;;;3.01;100.00;102089.31;7404736;19;20383;-52
2022/01/28 08:35:01;;;;;;;30.17;5.73;;;;;;;3.02;100.00;102102.22;7400823;19;20418;-45
2022/01/28 08:37:31;;;;;;;41.47;5.33;;;;;;;2.99;100.00;102107.03;7402017;19;20453;-49
2022/01/28 08:40:01;;;;;;;26.57;4.40;;;;;;;3.05;100.00;102110.16;7377919;19;20407;-50
2022/01/28 08:42:31;;;;;;;38.77;5.47;;;;;;;3.07;100.00;102100.09;7403942;19;20630;-49
2022/01/28 08:45:00;;;;;;;26.97;3.97;;;;;;;3.08;100.00;102125.75;7393266;19;20494;-46
2022/01/28 08:47:30;;;;;;;26.40;4.40;;;;;;;3.12;100.00;102120.94;7400686;19;20439;-45
2022/01/28 08:50:02;;;;;;;22.90;4.33;;;;;;;3.15;100.00;102127.22;7400630;19;20498;-47
2022/01/28 08:52:32;;;;;;;32.83;4.57;;;;;;;3.13;100.00;102130.38;7404065;19;20461;-47
2022/01/28 08:55:02;;;;;;;24.60;5.10;;;;;;;3.12;100.00;102126.03;7401882;19;20450;-47
2022/01/28 08:57:31;;;;;;;28.50;5.10;;;;;;;3.16;100.00;102138.31;7403538;19;20379;-47
2022/01/28 09:00:07;;;;;;;27.43;3.83;;;;;;;3.17;100.00;102141.00;7401062;19;20434;-49
2022/01/28 09:02:36;;;;;;;29.30;4.13;;;;;;;3.14;100.00;102153.50;7407251;19;20860;-46
2022/01/28 09:05:09;;;;;;;19.97;4.07;;;;;;;3.23;100.00;102150.91;7402316;19;20419;-49
2022/01/28 09:07:39;;;;;;;19.00;3.20;;;;;;;3.25;100.00;102154.50;7403515;19;20407;-46
2022/01/28 09:10:17;;;;;;;31.07;4.63;;;;;;;3.28;100.00;102164.09;7402084;19;20376;-45
2022/01/28 09:13:10;;;;;;;38.87;4.93;;;;;;;3.26;100.00;102151.19;7403591;19;20371;-48
2022/01/28 09:15:42;;;;;;;23.33;4.63;;;;;;;3.32;100.00;102177.28;7401422;19;20497;-47
2022/01/28 09:18:12;;;;;;;22.60;5.03;;;;;;;3.33;100.00;102179.06;7404780;19;20439;-45
2022/01/28 09:20:44;;;;;;;28.50;5.17;;;;;;;3.35;100.00;102180.09;7401766;19;20459;-49
2022/01/28 09:23:14;;;;;;;23.83;4.33;;;;;;;3.38;100.00;102189.69;7393022;19;20398;-48
2022/01/28 09:25:44;;;;;;;29.10;3.83;;;;;;;3.36;100.00;102184.47;7400927;19;20416;-48
2022/01/28 09:28:14;;;;;;;32.33;4.00;;;;;;;3.36;100.00;102194.69;7393622;19;20423;-45
2022/01/28 09:30:43;;;;;;;25.57;4.40;;;;;;;3.42;100.00;102201.09;7402153;19;20399;-48
2022/01/28 09:33:13;;;;;;;32.53;4.97;;;;;;;3.47;100.00;102208.44;7400474;19;20408;-47
2022/01/28 09:35:45;;;;;;;29.40;3.73;;;;;;;3.49;100.00;102211.13;7403970;19;20438;-50
2022/01/28 09:38:15;;;;;;;30.23;5.10;;;;;;;3.53;100.00;102215.75;7393028;19;20443;-47
2022/01/28 09:40:45;;;;;;;23.40;4.47;;;;;;;3.60;100.00;102219.78;7402454;19;20878;-46
2022/01/28 09:43:14;;;;;;;23.73;4.83;;;;;;;3.63;100.00;102231.19;7400195;19;20402;-45
2022/01/28 09:45:44;;;;;;;21.30;4.07;;;;;;;3.65;100.00;102233.91;7400869;19;20468;-48
2022/01/28 09:48:13;;;;;;;17.67;3.67;;;;;;;3.69;100.00;102240.19;7400178;19;20715;-46
2022/01/28 09:50:46;;;;;;;20.77;3.33;;;;;;;3.74;100.00;102238.97;7401243;19;20904;-48
2022/01/28 09:53:17;;;;;;;23.00;3.33;;;;;;;3.82;100.00;102253.34;7392509;19;20482;-47
2022/01/28 09:55:47;;;;;;;23.03;3.90;;;;;;;3.83;100.00;102246.56;7400490;19;20419;-48
2022/01/28 09:58:17;;;;;;;27.93;3.87;;;;;;;3.86;100.00;102241.75;7401124;19;20452;-50
2022/01/28 10:00:47;;;;;;;18.10;3.50;;;;;;;3.89;100.00;102244.56;7401821;19;20388;-47
2022/01/28 10:03:18;;;;;;;18.60;3.83;;;;;;;3.89;100.00;102237.81;7399472;19;20491;-49
2022/01/28 10:05:52;;;;;;;26.07;3.90;;;;;;;3.91;100.00;102249.06;7399989;19;20418;-49
2022/01/28 10:08:22;;;;;;;27.63;4.30;;;;;;;3.89;100.00;102245.47;7400087;19;20426;-46
2022/01/28 10:10:55;;;;;;;21.00;3.53;;;;;;;3.91;100.00;102249.06;7400563;19;20412;-46
2022/01/28 10:13:31;;;;;;;21.07;2.70;;;;;;;4.02;100.00;102251.72;7398658;19;20412;-49
2022/01/28 10:16:04;;;;;;;34.37;3.93;;;;;;;4.06;100.00;102253.81;7400942;19;20496;-49
2022/01/28 10:18:45;;;;;;;21.03;4.10;;;;;;;4.08;100.00;102249.75;7398874;19;20879;-47
2022/01/28 10:21:36;;;;;;;27.30;4.60;;;;;;;4.06;100.00;102235.94;7400462;19;20455;-45
2022/01/28 10:24:12;;;;;;;20.70;3.20;;;;;;;4.09;100.00;102243.88;7398566;19;20421;-46
2022/01/28 10:26:47;;;;;;;26.87;4.50;;;;;;;4.12;100.00;102258.59;7398255;19;20435;-48
2022/01/28 10:29:19;;;;;;;25.17;3.83;;;;;;;4.14;100.00;102264.72;7402538;19;20462;-45
2022/01/28 10:31:57;;;;;;;21.77;3.73;;;;;;;4.29;100.00;102260.13;7400036;19;20401;-51
2022/01/28 10:34:34;;;;;;;16.20;3.60;;;;;;;4.35;100.00;102265.78;7398376;19;20482;-48
2022/01/28 10:37:17;;;;;;;17.83;3.20;;;;;;;4.38;100.00;102277.97;7398710;19;20764;-47
2022/01/28 10:39:50;;;;;;;22.40;4.13;;;;;;;4.40;100.00;102274.78;7389273;19;20424;-49
2022/01/28 10:42:41;;;;;;;21.03;4.53;;;;;;;4.40;100.00;102276.44;7400312;19;20457;-47
2022/01/28 10:45:14;;;;;;;18.97;3.33;;;;;;;4.44;100.00;102276.88;7402915;19;20891;-47
2022/01/28 10:47:45;;;;;;;18.23;3.30;;;;;;;4.45;100.00;102270.09;7390064;19;20397;-50
2022/01/28 10:50:23;;;;;;;27.13;3.97;;;;;;;4.56;100.00;102273.63;7399246;19;20458;-45
2022/01/28 10:53:12;;;;;;;28.73;2.73;;;;;;;4.55;100.00;102276.94;7397622;19;20384;-47
2022/01/28 10:55:43;;;;;;;23.90;5.17;;;;;;;4.56;100.00;102265.97;7398196;19;20420;-48
2022/01/28 10:58:14;;;;;;;18.03;3.13;;;;;;;4.61;100.00;102277.47;7397079;19;20411;-48
2022/01/28 11:00:45;;;;;;;20.00;4.07;;;;;;;4.65;100.00;102283.78;7400988;19;20399;-48
2022/01/28 11:03:17;;;;;;;20.70;3.50;;;;;;;4.73;100.00;102281.16;7396892;19;20433;-48
2022/01/28 11:05:47;;;;;;;17.93;3.77;;;;;;;4.75;100.00;102285.50;7397740;19;20876;-48
2022/01/28 11:08:19;;;;;;;22.93;3.10;;;;;;;4.81;100.00;102286.03;7396890;19;20440;-46
2022/01/28 11:10:48;;;;;;;19.87;3.90;;;;;;;4.96;100.00;102292.56;7400989;19;20775;-47
2022/01/28 11:13:18;;;;;;;20.20;2.60;;;;;;;4.95;100.00;102301.00;7399274;19;20873;-46
2022/01/28 11:15:48;;;;;;;17.20;3.63;;;;;;;4.95;100.00;102297.53;7399360;19;20497;-48
2022/01/28 11:18:18;;;;;;;10.80;3.07;;;;;;;5.00;100.00;102306.50;7397756;19;20424;-45
2022/01/28 11:20:50;;;;;;;15.40;3.23;;;;;;;4.95;100.00;102306.09;7398831;19;20386;-48
2022/01/28 11:23:31;;;;;;;20.07;3.33;;;;;;;5.05;100.00;102302.72;7396726;19;20407;-47
2022/01/28 11:26:18;;;;;;;35.73;4.07;;;;;;;5.19;100.00;102316.75;7401051;19;20881;-46
2022/01/28 11:28:50;;;;;;;17.70;4.30;;;;;;;5.12;100.00;102327.16;7396693;19;20419;-47
2022/01/28 11:31:45;;;;;;;29.73;5.80;;;;;;;5.21;100.00;102316.84;7397921;19;20380;-47
2022/01/28 11:34:21;;;;;;;23.77;3.90;;;;;;;5.31;100.00;102331.34;7396790;19;20493;-48
2022/01/28 11:36:51;;;;;;;16.50;4.50;;;;;;;5.36;100.00;102327.53;7396489;19;20406;-48
2022/01/28 11:39:32;;;;;;;24.40;3.87;;;;;;;5.37;100.00;102342.13;7396496;19;20415;-45
2022/01/28 11:42:04;;;;;;;23.00;4.20;;;;;;;5.34;100.00;102336.75;7398102;19;20388;-47
2022/01/28 11:44:45;;;;;;;21.23;3.50;;;;;;;5.36;100.00;102340.34;7395387;19;20404;-47
2022/01/28 11:47:24;;;;;;;15.07;2.40;;;;;;;5.51;100.00;102346.84;7400625;19;20428;-50
2022/01/28 11:50:02;;;;;;;27.40;3.67;;;;;;;5.44;100.00;102352.16;7395269;19;20481;-49
2022/01/28 11:52:33;;;;;;;18.13;3.40;;;;;;;5.47;100.00;102356.66;7396707;19;20405;-47
2022/01/28 11:55:37;;;;;;;21.53;3.40;;;;;;;5.52;100.00;102358.88;7396239;19;20411;-50
2022/01/28 11:58:08;;;;;;;16.97;3.10;;;;;;;5.66;100.00;102365.19;7396073;19;20698;-49
2022/01/28 12:00:40;;;;;;;18.20;2.73;;;;;;;5.74;100.00;102365.84;7397655;19;20452;-50
2022/01/28 12:03:21;;;;;;;19.13;2.60;;;;;;;5.60;100.00;102366.31;7397046;19;20399;-46
2022/01/28 12:05:57;;;;;;;14.63;2.80;;;;;;;5.50;100.00;102360.38;7399713;19;20730;-49
2022/01/28 12:08:30;;;;;;;17.67;2.70;;;;;;;5.55;100.00;102355.69;7373026;19;20445;-50
2022/01/28 12:11:07;;;;;;;18.60;2.87;;;;;;;5.54;100.00;102357.34;7396389;19;20725;-51
2022/01/28 12:13:53;;;;;;;21.23;3.60;;;;;;;5.62;100.00;102362.22;7396007;19;20434;-45
2022/01/28 12:16:30;;;;;;;19.77;2.80;;;;;;;5.56;100.00;102366.81;7395801;19;20422;-47
2022/01/28 12:19:02;;;;;;;7.13;2.23;;;;;;;5.57;100.00;102361.81;7362495;19;20863;-45
2022/01/28 12:21:34;;;;;;;18.80;3.10;;;;;;;5.66;100.00;102361.75;7396475;19;20408;-47
2022/01/28 12:24:34;;;;;;;20.53;2.80;;;;;;;5.77;100.00;102362.66;7394604;19;20411;-48
2022/01/28 12:27:09;;;;;;;12.40;3.07;;;;;;;5.68;100.00;102365.31;7395193;19;20424;-45
2022/01/28 12:29:40;;;;;;;23.93;3.60;;;;;;;5.73;100.00;102360.59;7394718;19;20498;-47
2022/01/28 12:32:10;;;;;;;19.87;3.20;;;;;;;5.85;100.00;102360.78;7396424;19;20392;-47